Time;durP1;ratioP1;P1;durP2;ratioP2;P2;SDS_P1;SDS_P2;PMS_P1;PMS_P2;Temp;Humidity;BMP_temperature;BMP_pressure;BME280_temperature;BME280_humidity;BME280_pressure;Samples;Min_cycle;Max_cycle;Signal;HPM_P1;HPM_P2
2021/10/18 00:01:55;;;;;;;25.15;9.98;;;4.60;99.90;;;;;;5046912;28;19909;-79
2021/10/18 00:04:20;;;;;;;24.15;10.25;;;4.60;99.90;;;;;;5049115;28;20090;-80
2021/10/18 00:06:46;;;;;;;;;;;4.50;99.90;;;;;;5051860;28;20029;-80
2021/10/18 00:09:12;;;;;;;28.48;12.60;;;4.40;99.90;;;;;;5050522;28;19958;-79
2021/10/18 00:11:37;;;;;;;34.88;12.50;;;4.40;99.90;;;;;;5052051;28;20264;-79
2021/10/18 00:14:03;;;;;;;;;;;4.40;99.90;;;;;;5051013;28;20025;-79
2021/10/18 00:16:29;;;;;;;24.02;11.90;;;4.40;99.90;;;;;;5051659;28;20000;-79
2021/10/18 00:18:54;;;;;;;29.40;11.43;;;4.30;99.90;;;;;;5050490;28;20478;-79
2021/10/18 00:21:20;;;;;;;;;;;4.30;99.90;;;;;;5050455;28;20079;-79
2021/10/18 00:23:46;;;;;;;29.80;10.82;;;4.20;99.90;;;;;;5050364;28;20289;-80
2021/10/18 00:26:12;;;;;;;;;;;4.20;99.90;;;;;;5050461;28;20029;-78
2021/10/18 00:28:37;;;;;;;21.67;10.70;;;4.10;99.90;;;;;;5051259;28;19913;-79
2021/10/18 00:31:03;;;;;;;;;;;4.10;99.90;;;;;;5051901;28;20028;-79
2021/10/18 00:33:29;;;;;;;18.55;7.53;;;4.00;99.90;;;;;;5049995;28;20063;-78
2021/10/18 00:35:54;;;;;;;;;;;4.00;99.90;;;;;;5050379;28;20036;-78
2021/10/18 00:38:20;;;;;;;23.50;8.25;;;4.00;99.90;;;;;;5049727;28;19915;-80
2021/10/18 00:40:46;;;;;;;25.17;8.38;;;4.00;99.90;;;;;;5049818;28;20028;-79
2021/10/18 00:43:11;;;;;;;;;;;4.00;99.90;;;;;;5051810;28;20071;-80
2021/10/18 00:45:38;;;;;;;27.65;7.72;;;4.00;99.90;;;;;;5050961;28;19917;-79
2021/10/18 00:48:04;;;;;;;18.42;8.40;;;4.00;99.90;;;;;;5050768;28;20021;-78
2021/10/18 00:50:29;;;;;;;;;;;4.00;99.90;;;;;;5051310;28;20108;-78
2021/10/18 00:52:56;;;;;;;15.98;6.15;;;4.00;99.90;;;;;;5049621;28;20430;-80
2021/10/18 00:55:22;;;;;;;16.55;6.68;;;4.00;99.90;;;;;;5049879;28;20049;-77
2021/10/18 00:57:48;;;;;;;;;;;3.90;99.90;;;;;;5051269;28;20094;-79
2021/10/18 01:00:14;;;;;;;12.77;7.00;;;4.00;99.90;;;;;;5049217;28;19966;-79
2021/10/18 01:02:40;;;;;;;15.55;6.90;;;3.90;99.90;;;;;;5049599;28;20172;-79
2021/10/18 01:05:06;;;;;;;;;;;3.90;99.90;;;;;;5049671;28;20075;-79
2021/10/18 01:07:33;;;;;;;13.43;5.93;;;3.90;99.90;;;;;;5050483;28;19962;-79
2021/10/18 01:10:00;;;;;;;9.25;5.57;;;3.90;99.90;;;;;;5049438;28;20037;-78
2021/10/18 01:12:26;;;;;;;13.48;5.10;;;3.90;99.90;;;;;;5050707;28;20037;-79
2021/10/18 01:14:52;;;;;;;;;;;3.90;99.90;;;;;;5050752;28;20094;-78
2021/10/18 01:17:17;;;;;;;13.02;5.50;;;4.00;99.90;;;;;;5049385;28;19912;-79
2021/10/18 01:19:43;;;;;;;;;;;3.90;99.90;;;;;;5049108;28;20061;-79
2021/10/18 01:22:08;;;;;;;16.33;5.97;;;4.00;99.90;;;;;;5050040;28;19915;-79
2021/10/18 01:24:35;;;;;;;11.07;5.53;;;4.00;99.90;;;;;;5048566;28;20036;-79
2021/10/18 01:27:01;;;;;;;11.48;5.68;;;4.00;99.90;;;;;;5048822;28;20572;-79
2021/10/18 01:29:30;;;;;;;;;;;4.00;99.90;;;;;;5050540;28;20116;-80
2021/10/18 01:31:56;;;;;;;14.75;6.72;;;4.00;99.90;;;;;;5048826;28;19909;-79
2021/10/18 01:34:21;;;;;;;;;;;3.90;99.90;;;;;;5049273;28;20074;-80
2021/10/18 01:36:47;;;;;;;7.45;4.85;;;3.90;99.90;;;;;;5050247;28;19912;-79
2021/10/18 01:39:13;;;;;;;;;;;3.80;99.90;;;;;;5050445;28;20362;-80
2021/10/18 01:41:39;;;;;;;11.98;4.97;;;3.80;99.90;;;;;;5050159;28;19924;-80
2021/10/18 01:44:04;;;;;;;;;;;3.80;99.90;;;;;;5049221;28;20102;-80
2021/10/18 01:46:30;;;;;;;10.00;5.57;;;3.80;99.90;;;;;;5052353;28;19944;-80
2021/10/18 01:48:56;;;;;;;;;;;3.80;99.90;;;;;;5050293;28;20029;-79
2021/10/18 01:51:22;;;;;;;14.48;5.18;;;3.70;99.90;;;;;;5048038;28;19908;-80
2021/10/18 01:53:47;;;;;;;;;;;3.70;99.90;;;;;;5050039;28;20064;-80
2021/10/18 01:56:13;;;;;;;14.98;7.22;;;3.70;99.90;;;;;;5048222;28;19912;-80
2021/10/18 01:58:38;;;;;;;14.63;7.15;;;3.70;99.90;;;;;;5048484;28;20314;-80
2021/10/18 02:01:04;;;;;;;19.42;7.88;;;3.80;99.90;;;;;;5049774;28;20056;-79
2021/10/18 02:03:30;;;;;;;20.90;8.43;;;3.70;99.90;;;;;;5049951;28;20056;-80
2021/10/18 02:05:56;;;;;;;15.15;7.25;;;3.80;99.90;;;;;;5049433;28;20114;-77
2021/10/18 02:08:21;;;;;;;;;;;3.80;99.90;;;;;;5049563;28;20115;-79
2021/10/18 02:10:47;;;;;;;9.52;4.88;;;3.80;99.90;;;;;;5049128;28;19920;-78
2021/10/18 02:13:13;;;;;;;;;;;3.80;99.90;;;;;;5049633;28;20028;-78
2021/10/18 02:15:39;;;;;;;11.32;4.75;;;3.70;99.90;;;;;;5049237;28;19908;-78
2021/10/18 02:18:04;;;;;;;;;;;3.70;99.90;;;;;;5048004;28;20099;-78
2021/10/18 02:20:30;;;;;;;11.57;5.13;;;3.70;99.90;;;;;;5048943;28;19909;-79
2021/10/18 02:22:55;;;;;;;;;;;3.80;99.90;;;;;;5049449;28;20124;-78
2021/10/18 02:25:21;;;;;;;14.68;4.35;;;3.80;99.90;;;;;;5048619;28;20693;-78
2021/10/18 02:27:47;;;;;;;7.85;4.18;;;3.80;99.90;;;;;;5048658;28;20032;-79
2021/10/18 02:30:13;;;;;;;10.77;4.80;;;3.90;99.90;;;;;;5048825;28;20033;-78
2021/10/18 02:32:40;;;;;;;;;;;4.00;99.90;;;;;;5047855;28;20532;-78
2021/10/18 02:35:07;;;;;;;12.18;4.53;;;4.20;99.90;;;;;;5048910;28;19959;-79
2021/10/18 02:37:33;;;;;;;15.88;5.25;;;4.30;99.90;;;;;;5049007;28;20032;-79
2021/10/18 02:39:58;;;;;;;;;;;4.50;99.90;;;;;;5049280;28;20033;-79
2021/10/18 02:42:24;;;;;;;10.05;4.30;;;4.60;99.90;;;;;;5048975;28;19909;-80
2021/10/18 02:44:49;;;;;;;;;;;4.70;99.90;;;;;;5048339;28;20036;-80
2021/10/18 02:47:15;;;;;;;13.57;5.85;;;4.80;99.90;;;;;;5047695;28;20027;-78
2021/10/18 02:49:41;;;;;;;10.68;4.95;;;4.90;99.90;;;;;;5047903;28;20017;-80
2021/10/18 02:52:06;;;;;;;;;;;4.90;99.90;;;;;;5048312;28;20107;-79
2021/10/18 02:54:32;;;;;;;11.27;5.80;;;5.00;99.90;;;;;;5047812;28;19917;-80
2021/10/18 02:56:58;;;;;;;13.80;5.35;;;4.90;99.90;;;;;;5048200;28;20029;-80
2021/10/18 02:59:23;;;;;;;10.50;5.10;;;4.90;99.90;;;;;;5048858;28;20112;-81
2021/10/18 03:01:49;;;;;;;13.20;5.80;;;4.80;99.90;;;;;;5047969;28;20036;-79
2021/10/18 03:04:14;;;;;;;;;;;4.70;99.90;;;;;;5049019;28;20025;-78
2021/10/18 03:06:40;;;;;;;14.30;6.22;;;4.70;99.90;;;;;;5047395;28;19912;-78
2021/10/18 03:09:06;;;;;;;;;;;4.50;99.90;;;;;;5049286;28;20517;-80
2021/10/18 03:11:32;;;;;;;17.50;5.38;;;4.50;99.90;;;;;;5048290;28;19915;-79
2021/10/18 03:13:58;;;;;;;;;;;4.40;99.90;;;;;;5048728;28;20021;-78
2021/10/18 03:16:23;;;;;;;20.73;7.15;;;4.40;99.90;;;;;;5048421;28;19999;-79
2021/10/18 03:18:49;;;;;;;;;;;4.40;99.90;;;;;;5047623;28;20032;-79
2021/10/18 03:21:15;;;;;;;20.60;6.18;;;4.40;99.90;;;;;;5048623;28;20444;-79
2021/10/18 03:23:40;;;;;;;;;;;4.30;99.90;;;;;;5048747;28;20532;-79
2021/10/18 03:26:06;;;;;;;12.77;5.95;;;4.20;99.90;;;;;;5047024;28;19958;-79
2021/10/18 03:28:32;;;;;;;;;;;4.10;99.90;;;;;;5047592;28;20524;-79
2021/10/18 03:30:58;;;;;;;11.95;5.50;;;4.10;99.90;;;;;;5048380;28;19908;-79
2021/10/18 03:33:24;;;;;;;11.52;5.45;;;4.00;99.90;;;;;;5047006;28;20045;-79
2021/10/18 03:35:49;;;;;;;;;;;4.00;99.90;;;;;;5047478;28;20021;-79
2021/10/18 03:38:16;;;;;;;12.70;4.88;;;3.90;99.90;;;;;;5047817;28;19916;-79
2021/10/18 03:40:42;;;;;;;12.77;5.10;;;3.90;99.90;;;;;;5051151;28;20124;-78
2021/10/18 03:43:07;;;;;;;;;;;3.90;99.90;;;;;;5051916;28;20198;-78
2021/10/18 03:45:33;;;;;;;10.90;5.00;;;3.80;99.90;;;;;;5050987;28;19917;-79
2021/10/18 03:47:59;;;;;;;12.77;5.15;;;3.90;99.90;;;;;;5052077;28;20643;-79
2021/10/18 03:50:25;;;;;;;16.38;6.70;;;3.80;99.90;;;;;;5050681;28;20139;-78
2021/10/18 03:52:50;;;;;;;;;;;3.80;99.90;;;;;;5052381;28;20104;-79
2021/10/18 03:55:16;;;;;;;11.43;6.05;;;3.80;99.90;;;;;;5051931;28;19917;-79
2021/10/18 03:57:41;;;;;;;;;;;3.80;99.90;;;;;;5052369;28;20029;-78
2021/10/18 04:00:08;;;;;;;17.05;10.25;;;3.70;99.90;;;;;;5051662;28;19909;-78
2021/10/18 04:02:34;;;;;;;28.88;12.93;;;3.70;99.90;;;;;;5050115;28;20549;-76
2021/10/18 04:04:59;;;;;;;;;;;3.70;99.90;;;;;;5052250;28;20175;-78
2021/10/18 04:07:25;;;;;;;27.35;13.55;;;3.70;99.90;;;;;;5051826;28;19909;-80
2021/10/18 04:09:50;;;;;;;;;;;3.70;99.90;;;;;;5052287;28;20110;-78
2021/10/18 04:12:16;;;;;;;25.13;13.27;;;3.70;99.90;;;;;;5050140;28;20393;-80
2021/10/18 04:14:42;;;;;;;28.75;13.40;;;3.70;99.90;;;;;;5051574;28;20032;-79
2021/10/18 04:17:07;;;;;;;;;;;3.70;99.90;;;;;;5052502;28;20032;-80
2021/10/18 04:19:33;;;;;;;20.25;10.52;;;3.70;99.90;;;;;;5052207;28;19955;-79
2021/10/18 04:21:58;;;;;;;;;;;3.70;99.90;;;;;;5050918;28;20021;-78
2021/10/18 04:24:24;;;;;;;17.88;9.32;;;3.70;99.90;;;;;;5049911;28;19916;-81
2021/10/18 04:26:50;;;;;;;21.90;9.70;;;3.80;99.90;;;;;;5049819;28;20021;-80
2021/10/18 04:29:15;;;;;;;;;;;3.80;99.90;;;;;;5051498;28;20489;-80
2021/10/18 04:31:41;;;;;;;17.10;7.13;;;3.90;99.90;;;;;;5050174;28;20293;-81
2021/10/18 04:34:06;;;;;;;;;;;3.90;99.90;;;;;;5051153;28;20109;-79
2021/10/18 04:36:32;;;;;;;16.25;7.50;;;4.00;99.90;;;;;;5050712;28;19971;-80
2021/10/18 04:38:58;;;;;;;;;;;4.00;99.90;;;;;;5050165;28;20035;-78
2021/10/18 04:41:24;;;;;;;18.05;7.55;;;4.10;99.90;;;;;;5050936;28;19915;-81
2021/10/18 04:43:50;;;;;;;11.45;6.57;;;4.20;99.90;;;;;;5050744;28;20079;-78
2021/10/18 04:46:15;;;;;;;9.38;5.80;;;4.40;99.90;;;;;;5049182;28;20076;-80
2021/10/18 04:48:41;;;;;;;;;;;4.40;99.90;;;;;;5050902;28;20107;-80
2021/10/18 04:51:07;;;;;;;10.82;4.88;;;4.50;99.90;;;;;;5049684;28;19928;-80
2021/10/18 04:53:33;;;;;;;;;;;4.70;99.90;;;;;;5050888;28;20080;-80
2021/10/18 04:55:58;;;;;;;11.50;4.90;;;4.80;99.90;;;;;;5050039;28;19920;-80
2021/10/18 04:58:24;;;;;;;7.13;4.10;;;5.00;99.90;;;;;;5049652;28;20044;-79
2021/10/18 05:00:55;;;;;;;;;;;5.10;99.90;;;;;;5049843;28;20043;-81
2021/10/18 05:03:20;;;;;;;7.13;4.55;;;5.20;99.90;;;;;;5048699;28;19908;-81
2021/10/18 05:05:46;;;;;;;;;;;5.30;99.90;;;;;;5049259;28;20047;-78
2021/10/18 05:08:13;;;;;;;13.05;5.85;;;5.40;99.90;;;;;;5050004;28;19916;-79
2021/10/18 05:10:43;;;;;;;8.73;4.72;;;5.60;99.90;;;;;;5049121;28;20095;-81
2021/10/18 05:13:11;;;;;;;9.40;4.93;;;5.70;99.90;;;;;;5049085;28;20040;-79
2021/10/18 05:15:37;;;;;;;8.25;4.80;;;5.80;99.90;;;;;;5048730;28;20115;-81
2021/10/18 05:18:03;;;;;;;9.50;4.75;;;5.80;99.90;;;;;;5048959;28;20029;-80
2021/10/18 05:20:30;;;;;;;9.35;5.18;;;5.90;99.90;;;;;;5048478;28;20426;-81
2021/10/18 05:22:56;;;;;;;12.77;6.50;;;6.00;99.90;;;;;;5049154;28;20098;-80
2021/10/18 05:25:22;;;;;;;;;;;6.10;99.90;;;;;;5049051;28;20080;-81
2021/10/18 05:27:48;;;;;;;17.38;7.45;;;6.10;99.90;;;;;;5048671;28;20452;-79
2021/10/18 05:30:16;;;;;;;15.93;8.05;;;6.10;99.90;;;;;;5048566;28;20036;-79
2021/10/18 05:32:41;;;;;;;17.45;7.47;;;6.20;99.90;;;;;;5050565;28;20032;-80
2021/10/18 05:35:07;;;;;;;;;;;6.20;99.90;;;;;;5049052;28;20036;-80
2021/10/18 05:37:33;;;;;;;17.88;7.82;;;6.20;99.90;;;;;;5049757;28;19909;-80
2021/10/18 05:39:59;;;;;;;19.60;8.55;;;6.20;99.90;;;;;;5048506;28;20090;-79
2021/10/18 05:42:25;;;;;;;19.13;8.00;;;6.30;99.90;;;;;;5049458;28;20059;-80
2021/10/18 05:44:50;;;;;;;;;;;6.30;99.90;;;;;;5049893;28;20037;-80
2021/10/18 05:47:16;;;;;;;23.55;7.88;;;6.30;99.90;;;;;;5049186;28;19912;-81
2021/10/18 05:49:41;;;;;;;;;;;6.50;99.90;;;;;;5049896;28;20043;-80
2021/10/18 05:52:07;;;;;;;22.30;9.18;;;6.50;99.90;;;;;;5049457;28;19908;-80
2021/10/18 05:54:32;;;;;;;;;;;6.60;99.90;;;;;;5049741;28;20048;-79
2021/10/18 05:56:58;;;;;;;21.27;10.05;;;6.70;99.90;;;;;;5049420;28;19920;-79
2021/10/18 05:59:24;;;;;;;;;;;6.70;99.90;;;;;;5049626;28;20387;-78
2021/10/18 06:01:49;;;;;;;16.50;8.20;;;6.70;99.90;;;;;;5048441;28;19908;-79
2021/10/18 06:04:16;;;;;;;;;;;6.80;99.90;;;;;;5048177;28;20412;-80
2021/10/18 06:06:41;;;;;;;23.73;11.45;;;6.90;99.90;;;;;;5049026;28;19909;-80
2021/10/18 06:09:07;;;;;;;;;;;7.00;99.90;;;;;;5049547;28;20086;-79
2021/10/18 06:11:33;;;;;;;16.77;9.45;;;7.10;99.90;;;;;;5048224;28;20007;-80
2021/10/18 06:13:59;;;;;;;20.08;9.68;;;7.10;99.90;;;;;;5047683;28;20135;-79
2021/10/18 06:16:25;;;;;;;;;;;7.20;99.90;;;;;;5048083;28;20120;-80
2021/10/18 06:18:51;;;;;;;12.77;6.22;;;7.30;99.90;;;;;;5048988;28;20385;-80
2021/10/18 06:21:17;;;;;;;;;;;7.40;99.90;;;;;;5049554;28;20031;-80
2021/10/18 06:23:43;;;;;;;16.00;6.95;;;7.50;99.90;;;;;;5048837;28;19950;-79
2021/10/18 06:26:10;;;;;;;14.00;6.82;;;7.70;99.90;;;;;;5048801;28;20132;-81
2021/10/18 06:28:36;;;;;;;13.07;6.18;;;7.90;99.90;;;;;;5048593;28;20017;-81
2021/10/18 06:31:02;;;;;;;9.80;6.15;;;8.10;99.90;;;;;;5048891;28;20025;-81
2021/10/18 06:33:27;;;;;;;;;;;8.50;99.90;;;;;;5047680;28;20586;-81
2021/10/18 06:35:53;;;;;;;14.45;7.75;;;8.90;99.90;;;;;;5047492;28;19908;-80
2021/10/18 06:38:21;;;;;;;10.07;6.10;;;9.10;99.90;;;;;;5048562;28;20115;-80
2021/10/18 06:40:48;;;;;;;11.95;6.50;;;9.30;99.90;;;;;;5048813;28;20086;-80
2021/10/18 06:43:15;;;;;;;12.23;5.25;;;9.60;99.90;;;;;;5048626;28;20211;-80
2021/10/18 06:45:41;;;;;;;9.57;5.07;;;9.80;99.90;;;;;;5048533;28;20490;-80
2021/10/18 06:48:08;;;;;;;;;;;10.00;99.90;;;;;;5048991;28;20029;-79
2021/10/18 06:50:38;;;;;;;8.05;4.45;;;10.20;99.90;;;;;;5048562;28;19912;-80
2021/10/18 06:53:06;;;;;;;7.93;4.28;;;10.30;99.90;;;;;;5048204;28;20087;-80
2021/10/18 06:55:33;;;;;;;11.40;4.30;;;10.40;99.90;;;;;;5048188;28;20025;-80
2021/10/18 06:57:59;;;;;;;9.25;4.28;;;10.60;99.90;;;;;;5048337;28;20044;-79
2021/10/18 07:00:25;;;;;;;11.38;4.93;;;10.70;99.90;;;;;;5048322;28;20028;-80
2021/10/18 07:02:51;;;;;;;;;;;10.80;99.90;;;;;;5048859;28;20537;-80
2021/10/18 07:05:17;;;;;;;6.82;3.35;;;10.90;99.90;;;;;;5048214;28;19916;-79
2021/10/18 07:07:43;;;;;;;;;;;11.00;99.90;;;;;;5048886;28;20025;-80
2021/10/18 07:10:09;;;;;;;7.28;3.10;;;11.10;99.00;;;;;;5046948;28;19916;-80
2021/10/18 07:12:36;;;;;;;10.50;3.67;;;11.10;98.80;;;;;;5049659;28;20025;-79
2021/10/18 07:15:03;;;;;;;9.40;3.67;;;11.20;98.80;;;;;;5052370;28;20486;-80
2021/10/18 07:17:29;;;;;;;6.13;3.40;;;11.30;98.30;;;;;;5052333;28;20043;-80
2021/10/18 07:19:55;;;;;;;;;;;11.40;98.30;;;;;;5052810;28;20037;-79
2021/10/18 07:22:27;;;;;;;8.15;4.30;;;11.50;97.40;;;;;;5052154;28;19916;-79
2021/10/18 07:24:54;;;;;;;9.57;3.95;;;11.60;97.30;;;;;;5050610;28;20096;-78
2021/10/18 07:27:23;;;;;;;8.20;3.17;;;11.80;96.40;;;;;;5051739;28;20017;-79
2021/10/18 07:29:49;;;;;;;12.63;3.70;;;11.90;95.70;;;;;;5050814;28;20065;-80
2021/10/18 07:32:14;;;;;;;;;;;12.10;94.50;;;;;;5052366;28;20052;-78
2021/10/18 07:34:40;;;;;;;19.77;8.70;;;12.30;93.50;;;;;;5050704;28;19909;-80
2021/10/18 07:37:07;;;;;;;;;;;12.50;93.40;;;;;;5052284;28;20017;-81
2021/10/18 07:39:33;;;;;;;18.15;9.95;;;12.60;93.80;;;;;;5051931;28;19916;-78
2021/10/18 07:41:59;;;;;;;;;;;12.80;93.00;;;;;;5052094;28;20025;-80
2021/10/18 07:44:25;;;;;;;20.27;7.00;;;12.90;92.70;;;;;;5051776;28;19977;-79
2021/10/18 07:46:52;;;;;;;12.95;6.00;;;13.00;92.30;;;;;;5050457;28;20036;-80
2021/10/18 07:49:18;;;;;;;13.43;6.90;;;13.20;91.50;;;;;;5051794;28;20082;-79
2021/10/18 07:51:44;;;;;;;;;;;13.20;91.40;;;;;;5050835;28;20436;-80
2021/10/18 07:54:10;;;;;;;16.35;7.07;;;13.30;91.40;;;;;;5050138;28;19923;-80
2021/10/18 07:56:36;;;;;;;21.10;7.18;;;13.20;91.50;;;;;;5051231;28;20025;-79
2021/10/18 07:59:02;;;;;;;;;;;13.30;91.30;;;;;;5052150;28;20409;-80
2021/10/18 08:01:27;;;;;;;13.25;7.50;;;13.40;90.90;;;;;;5051489;28;19911;-80
2021/10/18 08:03:53;;;;;;;;;;;13.50;90.90;;;;;;5049814;28;20091;-80
2021/10/18 08:06:19;;;;;;;15.48;8.25;;;13.70;90.60;;;;;;5050589;28;19912;-80
2021/10/18 08:08:47;;;;;;;15.40;8.25;;;13.90;90.80;;;;;;5050367;28;20526;-80
2021/10/18 08:11:13;;;;;;;14.70;6.50;;;14.20;90.50;;;;;;5050520;28;20098;-80
2021/10/18 08:13:39;;;;;;;;;;;14.40;89.50;;;;;;5050829;28;20083;-78
2021/10/18 08:16:05;;;;;;;12.05;6.10;;;14.60;86.70;;;;;;5050579;28;20426;-78
2021/10/18 08:18:30;;;;;;;13.18;6.80;;;14.90;86.00;;;;;;5050112;28;20031;-79
2021/10/18 08:20:56;;;;;;;;;;;15.20;83.70;;;;;;5049084;28;20033;-79
2021/10/18 08:23:22;;;;;;;15.90;6.95;;;15.30;81.80;;;;;;5050549;28;19952;-78
2021/10/18 08:25:47;;;;;;;21.85;7.97;;;15.50;81.50;;;;;;5050651;28;20127;-79
2021/10/18 08:28:13;;;;;;;15.60;6.55;;;15.60;76.90;;;;;;5049464;28;20028;-80
2021/10/18 08:30:39;;;;;;;13.55;6.50;;;15.50;78.00;;;;;;5049579;28;20029;-79
2021/10/18 08:33:05;;;;;;;11.90;6.45;;;15.40;78.00;;;;;;5049632;28;20025;-78
2021/10/18 08:35:32;;;;;;;10.15;6.15;;;15.40;76.10;;;;;;5049337;28;20021;-79
2021/10/18 08:40:47;;;;;;;18.02;6.25;;;15.90;75.30;;;;;;5050902;28;20036;-80
2021/10/18 08:45:53;;;;;;;10.25;6.57;;;16.10;70.90;;;;;;5050774;28;20124;-80
2021/10/18 08:48:19;;;;;;;9.27;5.13;;;16.00;70.50;;;;;;5050404;28;20191;-79
2021/10/18 08:50:47;;;;;;;13.73;5.88;;;16.10;69.40;;;;;;5049008;28;20029;-79
2021/10/18 08:53:13;;;;;;;11.15;5.45;;;16.20;69.00;;;;;;5050530;28;20056;-80
2021/10/18 08:55:39;;;;;;;8.85;4.97;;;16.40;68.60;;;;;;5050562;28;20048;-79
2021/10/18 08:58:06;;;;;;;14.20;6.32;;;16.50;66.70;;;;;;5047647;28;20429;-78
2021/10/18 09:00:40;;;;;;;10.45;5.57;;;16.60;65.40;;;;;;5043852;28;20041;-78
2021/10/18 09:03:25;;;;;;;9.45;4.80;;;16.60;65.30;;;;;;5046901;28;20631;-78
2021/10/18 09:06:07;;;;;;;9.38;4.53;;;16.50;63.80;;;;;;5049140;28;20041;-78
2021/10/18 09:08:35;;;;;;;11.60;4.45;;;16.50;64.40;;;;;;5043803;28;20064;-78
2021/10/18 09:11:07;;;;;;;11.73;4.68;;;16.50;64.70;;;;;;5048533;28;20033;-78
2021/10/18 09:13:34;;;;;;;8.30;3.95;;;16.50;62.60;;;;;;5049159;28;20422;-78
2021/10/18 09:16:01;;;;;;;9.30;4.65;;;16.30;63.10;;;;;;5047306;28;20735;-79
2021/10/18 09:18:27;;;;;;;10.10;3.65;;;16.50;63.30;;;;;;5049391;28;20033;-78
2021/10/18 09:20:52;;;;;;;6.53;3.90;;;16.70;62.20;;;;;;5045689;28;20043;-78
2021/10/18 09:23:27;;;;;;;10.27;3.63;;;16.70;60.10;;;;;;5045011;28;20056;-78
2021/10/18 09:26:02;;;;;;;11.15;3.70;;;16.70;61.40;;;;;;5044074;28;20045;-78
2021/10/18 09:28:29;;;;;;;8.25;3.72;;;16.90;60.60;;;;;;5048822;28;20498;-78
2021/10/18 09:30:56;;;;;;;7.72;3.55;;;17.10;60.00;;;;;;5046768;28;20045;-79
2021/10/18 09:33:35;;;;;;;8.15;3.25;;;17.40;59.20;;;;;;5045519;28;20078;-78
2021/10/18 09:36:04;;;;;;;5.93;2.60;;;17.50;55.40;;;;;;5045057;28;20044;-76
2021/10/18 09:38:30;;;;;;;7.90;3.40;;;17.60;54.60;;;;;;5048605;28;20087;-76
2021/10/18 09:40:58;;;;;;;7.72;2.78;;;17.70;53.80;;;;;;5045104;28;20045;-77
2021/10/18 09:43:48;;;;;;;6.15;2.78;;;17.80;52.80;;;;;;5046514;28;20533;-76
2021/10/18 10:53:33;;;;;;;;;;;14.60;59.30;;;;;;5047616;28;20053;-79
2021/10/18 10:56:42;;;;;;;4.03;2.03;;;14.60;60.90;;;;;;5047487;28;19917;-79
2021/10/18 10:59:24;;;;;;;5.40;2.58;;;14.70;59.90;;;;;;5047538;28;20041;-78
2021/10/18 11:01:59;;;;;;;9.98;3.30;;;14.90;59.20;;;;;;5047067;28;20460;-78
2021/10/18 11:04:34;;;;;;;5.90;2.20;;;14.90;58.50;;;;;;5044861;28;20029;-78
2021/10/18 11:07:05;;;;;;;6.82;3.72;;;14.90;59.10;;;;;;5047142;28;20075;-78
2021/10/18 11:09:41;;;;;;;9.38;4.40;;;15.10;61.10;;;;;;5045840;28;20509;-78
2021/10/18 11:12:17;;;;;;;10.82;4.03;;;15.10;61.50;;;;;;5047329;28;20041;-78
2021/10/18 11:14:52;;;;;;;7.90;3.85;;;14.90;62.00;;;;;;5045975;28;20036;-78
2021/10/18 11:17:18;;;;;;;11.68;7.53;;;14.90;61.60;;;;;;5044569;28;20041;-79
2021/10/18 11:20:18;;;;;;;6.97;3.13;;;14.80;61.10;;;;;;5047295;28;20056;-78
2021/10/18 11:22:49;;;;;;;5.13;2.88;;;14.80;59.50;;;;;;5024523;28;20498;-79
2021/10/18 11:25:18;;;;;;;18.75;13.32;;;14.60;60.10;;;;;;5047259;28;20037;-78
2021/10/18 11:27:49;;;;;;;14.55;8.18;;;14.80;60.30;;;;;;5045437;28;20032;-78
2021/10/18 11:30:17;;;;;;;5.93;3.13;;;14.80;60.30;;;;;;5044154;28;20064;-78
2021/10/18 11:33:05;;;;;;;6.15;2.90;;;15.00;59.90;;;;;;5040463;28;20528;-78
2021/10/18 11:35:32;;;;;;;6.97;4.03;;;15.00;59.80;;;;;;5047011;28;20033;-78
2021/10/18 11:38:10;;;;;;;5.55;2.78;;;15.00;59.80;;;;;;5044369;28;20045;-77
2021/10/18 11:40:41;;;;;;;7.97;4.10;;;15.10;59.60;;;;;;5045158;28;20033;-79
2021/10/18 11:43:22;;;;;;;9.60;3.63;;;15.10;59.20;;;;;;5043704;28;20052;-78
2021/10/18 11:45:50;;;;;;;8.50;4.03;;;15.20;60.20;;;;;;5046761;28;20045;-78
2021/10/18 11:48:21;;;;;;;10.20;4.28;;;15.40;60.50;;;;;;5045302;28;20532;-79
2021/10/18 11:50:52;;;;;;;8.55;3.75;;;15.50;60.50;;;;;;5039408;28;20045;-79
2021/10/18 11:53:22;;;;;;;9.07;3.80;;;15.70;60.90;;;;;;5046294;28;20476;-80
2021/10/18 11:55:50;;;;;;;8.98;4.43;;;15.90;60.40;;;;;;5043658;28;20059;-79
2021/10/18 11:58:27;;;;;;;9.45;4.97;;;16.00;59.00;;;;;;5041722;28;20506;-79
2021/10/18 12:01:16;;;;;;;27.55;13.80;;;16.20;58.70;;;;;;5050228;28;20033;-78
2021/10/18 12:03:41;;;;;;;7.30;4.20;;;16.20;58.80;;;;;;5050195;28;20025;-78
2021/10/18 12:06:08;;;;;;;;;;;16.30;57.60;;;;;;5049642;28;20086;-79
2021/10/18 12:08:39;;;;;;;10.35;4.80;;;16.10;58.00;;;;;;5048790;28;19952;-78
2021/10/18 12:11:07;;;;;;;10.75;3.33;;;16.00;58.30;;;;;;5050504;28;20080;-79
2021/10/18 12:13:40;;;;;;;7.55;3.67;;;15.90;58.40;;;;;;5048478;28;20032;-79
2021/10/18 12:16:15;;;;;;;7.55;3.63;;;15.90;58.70;;;;;;5047684;28;20042;-78
2021/10/18 12:19:00;;;;;;;8.07;3.95;;;15.80;59.00;;;;;;5048108;28;20040;-79
2021/10/18 12:21:27;;;;;;;8.15;3.60;;;15.70;59.40;;;;;;5050045;28;20496;-78
2021/10/18 12:23:59;;;;;;;6.45;3.40;;;15.70;60.00;;;;;;5049952;28;20295;-78
2021/10/18 12:26:36;;;;;;;7.38;3.35;;;15.70;59.50;;;;;;5049085;28;20112;-78
2021/10/18 12:29:05;;;;;;;7.15;2.97;;;15.70;58.60;;;;;;5049186;28;20548;-78
2021/10/18 12:31:40;;;;;;;8.23;3.28;;;15.70;58.20;;;;;;5047722;28;20052;-78
2021/10/18 12:34:11;;;;;;;6.20;2.50;;;15.60;58.20;;;;;;5048983;28;20087;-78
2021/10/18 12:37:02;;;;;;;6.82;2.90;;;15.50;57.60;;;;;;5047813;28;20037;-78
2021/10/18 12:39:48;;;;;;;5.05;2.30;;;15.60;58.40;;;;;;5047041;28;20036;-78
2021/10/18 12:42:34;;;;;;;5.60;2.67;;;15.60;58.50;;;;;;5046816;28;20522;-78
2021/10/18 12:45:02;;;;;;;6.35;3.42;;;15.60;58.40;;;;;;5045113;28;20094;-78
2021/10/18 12:47:29;;;;;;;11.43;3.90;;;15.60;58.70;;;;;;5045967;28;20155;-78
2021/10/18 12:50:16;;;;;;;6.75;3.80;;;15.60;58.00;;;;;;5046751;28;20565;-78
2021/10/18 12:52:51;;;;;;;8.95;3.80;;;15.50;58.70;;;;;;5043250;28;20056;-79
2021/10/18 12:55:24;;;;;;;5.78;2.97;;;15.40;59.00;;;;;;5045305;28;20044;-79
2021/10/18 12:57:55;;;;;;;6.75;3.22;;;15.30;59.50;;;;;;5044342;28;20047;-79
2021/10/18 13:00:35;;;;;;;6.18;3.17;;;15.30;60.70;;;;;;5048562;28;20037;-78
2021/10/18 13:03:07;;;;;;;6.43;2.88;;;15.40;60.50;;;;;;5049340;28;20548;-78
2021/10/18 13:05:39;;;;;;;7.90;4.28;;;15.50;60.50;;;;;;5048023;28;20410;-78
2021/10/18 13:08:04;;;;;;;10.57;4.13;;;15.60;60.30;;;;;;5047934;28;20081;-79
2021/10/18 13:10:35;;;;;;;;;;;15.90;59.20;;;;;;5047260;28;20055;-78
2021/10/18 13:13:06;;;;;;;7.82;3.50;;;15.90;58.10;;;;;;5048485;28;20454;-79
2021/10/18 13:15:33;;;;;;;8.60;3.50;;;15.80;58.30;;;;;;5045941;28;20040;-79
2021/10/18 13:17:59;;;;;;;6.75;3.05;;;15.90;59.00;;;;;;5048694;28;20040;-78
2021/10/18 13:20:26;;;;;;;11.60;5.47;;;15.80;58.30;;;;;;5047643;28;20098;-78
2021/10/18 13:22:54;;;;;;;14.30;4.03;;;15.70;58.50;;;;;;5048759;28;20032;-78
2021/10/18 13:25:24;;;;;;;13.00;5.00;;;15.70;58.90;;;;;;5048995;28;20037;-79
2021/10/18 13:27:51;;;;;;;12.32;4.03;;;15.50;59.30;;;;;;5049036;28;20037;-78
2021/10/18 13:30:17;;;;;;;9.02;3.70;;;15.30;59.60;;;;;;5046074;28;20041;-78
2021/10/18 13:32:44;;;;;;;12.35;3.58;;;15.20;59.80;;;;;;5048813;28;20509;-78
2021/10/18 13:35:10;;;;;;;7.97;3.45;;;15.30;60.10;;;;;;5046927;28;20115;-78
2021/10/18 13:37:36;;;;;;;6.75;3.58;;;15.40;60.20;;;;;;5046660;28;20128;-78
2021/10/18 13:40:04;;;;;;;8.20;3.85;;;15.60;59.00;;;;;;5045280;28;20041;-78
2021/10/18 13:42:30;;;;;;;8.55;4.00;;;15.50;59.20;;;;;;5046379;28;20824;-78
2021/10/18 13:44:55;;;;;;;;;;;15.50;59.30;;;;;;5048793;28;20116;-78
2021/10/18 13:47:21;;;;;;;5.35;2.90;;;15.50;60.10;;;;;;5046733;28;19921;-78
2021/10/18 13:49:47;;;;;;;;;;;15.40;60.50;;;;;;5047545;28;20048;-79
2021/10/18 13:52:12;;;;;;;6.60;3.17;;;15.40;60.80;;;;;;5048192;28;19921;-79
2021/10/18 13:54:38;;;;;;;;;;;15.50;60.50;;;;;;5046823;28;20049;-79
2021/10/18 13:57:04;;;;;;;9.85;2.88;;;15.50;60.30;;;;;;5044133;28;20382;-79
2021/10/18 13:59:29;;;;;;;;;;;15.50;60.50;;;;;;5047969;28;20486;-80
2021/10/18 14:01:55;;;;;;;7.15;2.83;;;15.40;60.50;;;;;;5047581;28;19938;-79
2021/10/18 14:04:21;;;;;;;;;;;15.30;60.90;;;;;;5046494;28;20033;-79
2021/10/18 14:06:50;;;;;;;7.05;3.45;;;15.20;60.80;;;;;;5044010;28;19948;-78
2021/10/18 14:09:16;;;;;;;9.55;3.80;;;15.10;61.80;;;;;;5047814;28;20041;-78
2021/10/18 14:11:42;;;;;;;10.98;3.75;;;15.00;61.10;;;;;;5046827;28;20517;-78
2021/10/18 14:14:08;;;;;;;;;;;14.90;60.90;;;;;;5048505;28;20115;-79
2021/10/18 14:16:35;;;;;;;14.97;7.93;;;14.80;60.70;;;;;;5046581;28;19921;-79
2021/10/18 14:19:02;;;;;;;12.45;6.63;;;14.60;61.40;;;;;;5045859;28;20386;-78
2021/10/18 14:21:32;;;;;;;12.73;4.55;;;14.50;61.80;;;;;;5047541;28;20029;-79
2021/10/18 14:23:58;;;;;;;23.55;11.25;;;14.50;62.00;;;;;;5045116;28;20049;-78